sensor_id;sensor_type;location;lat;lon;timestamp;temperature;humidity
21734;DHT22;11029;47.820;10.534;2022-07-26T00:00:12;20.40;76.50
21734;DHT22;11029;47.820;10.534;2022-07-26T00:02:40;20.40;75.20
21734;DHT22;11029;47.820;10.534;2022-07-26T00:05:14;20.30;76.60
21734;DHT22;11029;47.820;10.534;2022-07-26T00:07:42;20.20;77.70
21734;DHT22;11029;47.820;10.534;2022-07-26T00:10:09;20.30;76.90
21734;DHT22;11029;47.820;10.534;2022-07-26T00:12:36;20.30;76.10
21734;DHT22;11029;47.820;10.534;2022-07-26T00:15:05;20.30;76.80
21734;DHT22;11029;47.820;10.534;2022-07-26T00:17:32;20.30;76.80
21734;DHT22;11029;47.820;10.534;2022-07-26T00:19:59;20.30;76.10
21734;DHT22;11029;47.820;10.534;2022-07-26T00:22:26;20.40;75.70
21734;DHT22;11029;47.820;10.534;2022-07-26T00:25:06;20.30;76.20
21734;DHT22;11029;47.820;10.534;2022-07-26T00:27:34;20.10;76.80
21734;DHT22;11029;47.820;10.534;2022-07-26T00:30:08;19.90;77.10
21734;DHT22;11029;47.820;10.534;2022-07-26T00:32:36;19.90;77.90
21734;DHT22;11029;47.820;10.534;2022-07-26T00:35:04;20.10;77.10
21734;DHT22;11029;47.820;10.534;2022-07-26T00:37:32;20.10;76.90
21734;DHT22;11029;47.820;10.534;2022-07-26T00:39:58;20.10;76.60
21734;DHT22;11029;47.820;10.534;2022-07-26T00:42:25;20.10;76.30
21734;DHT22;11029;47.820;10.534;2022-07-26T00:44:52;19.90;76.20
21734;DHT22;11029;47.820;10.534;2022-07-26T00:47:19;19.90;77.00
21734;DHT22;11029;47.820;10.534;2022-07-26T00:49:46;19.70;77.50
21734;DHT22;11029;47.820;10.534;2022-07-26T00:52:13;19.70;78.40
21734;DHT22;11029;47.820;10.534;2022-07-26T00:54:42;19.60;78.80
21734;DHT22;11029;47.820;10.534;2022-07-26T00:57:12;19.70;79.10
21734;DHT22;11029;47.820;10.534;2022-07-26T00:59:41;19.80;79.20
21734;DHT22;11029;47.820;10.534;2022-07-26T01:02:09;19.90;78.00
21734;DHT22;11029;47.820;10.534;2022-07-26T01:04:36;19.80;77.80
21734;DHT22;11029;47.820;10.534;2022-07-26T01:07:03;19.90;77.30
21734;DHT22;11029;47.820;10.534;2022-07-26T01:09:41;19.90;77.30
21734;DHT22;11029;47.820;10.534;2022-07-26T01:12:08;19.90;77.20
21734;DHT22;11029;47.820;10.534;2022-07-26T01:14:35;20.00;77.40
21734;DHT22;11029;47.820;10.534;2022-07-26T01:17:02;20.10;77.30
21734;DHT22;11029;47.820;10.534;2022-07-26T01:19:29;20.10;77.50
21734;DHT22;11029;47.820;10.534;2022-07-26T01:21:56;20.00;76.80
21734;DHT22;11029;47.820;10.534;2022-07-26T01:24:23;19.60;78.30
21734;DHT22;11029;47.820;10.534;2022-07-26T01:26:50;19.50;78.60
21734;DHT22;11029;47.820;10.534;2022-07-26T01:29:16;19.40;79.60
21734;DHT22;11029;47.820;10.534;2022-07-26T01:31:43;19.60;79.90
21734;DHT22;11029;47.820;10.534;2022-07-26T01:34:10;19.60;79.70
21734;DHT22;11029;47.820;10.534;2022-07-26T01:36:37;19.60;79.80
21734;DHT22;11029;47.820;10.534;2022-07-26T01:39:05;19.50;79.90
21734;DHT22;11029;47.820;10.534;2022-07-26T01:41:32;19.60;79.50
21734;DHT22;11029;47.820;10.534;2022-07-26T01:44:04;19.70;79.00
21734;DHT22;11029;47.820;10.534;2022-07-26T01:46:32;19.70;79.20
21734;DHT22;11029;47.820;10.534;2022-07-26T01:48:59;19.80;79.40
21734;DHT22;11029;47.820;10.534;2022-07-26T01:51:27;19.80;78.80
21734;DHT22;11029;47.820;10.534;2022-07-26T01:53:54;19.80;78.30
21734;DHT22;11029;47.820;10.534;2022-07-26T01:56:21;19.80;78.70
21734;DHT22;11029;47.820;10.534;2022-07-26T01:58:47;19.80;78.40
21734;DHT22;11029;47.820;10.534;2022-07-26T02:01:15;19.80;77.70
21734;DHT22;11029;47.820;10.534;2022-07-26T02:04:01;19.70;78.20
21734;DHT22;11029;47.820;10.534;2022-07-26T02:06:28;19.70;77.90
21734;DHT22;11029;47.820;10.534;2022-07-26T02:08:55;19.60;78.20
21734;DHT22;11029;47.820;10.534;2022-07-26T02:11:22;19.60;78.10
21734;DHT22;11029;47.820;10.534;2022-07-26T02:13:48;19.60;78.30
21734;DHT22;11029;47.820;10.534;2022-07-26T02:16:18;19.60;78.40
21734;DHT22;11029;47.820;10.534;2022-07-26T02:18:45;19.60;77.90
21734;DHT22;11029;47.820;10.534;2022-07-26T02:21:12;19.60;78.10
21734;DHT22;11029;47.820;10.534;2022-07-26T02:23:39;19.60;77.50
21734;DHT22;11029;47.820;10.534;2022-07-26T02:26:07;19.60;78.00
21734;DHT22;11029;47.820;10.534;2022-07-26T02:28:34;19.60;78.00
21734;DHT22;11029;47.820;10.534;2022-07-26T02:31:01;19.50;76.60
21734;DHT22;11029;47.820;10.534;2022-07-26T02:33:28;19.30;78.30
21734;DHT22;11029;47.820;10.534;2022-07-26T02:35:54;19.30;78.40
21734;DHT22;11029;47.820;10.534;2022-07-26T02:38:21;19.40;78.60
21734;DHT22;11029;47.820;10.534;2022-07-26T02:40:50;19.50;78.80
21734;DHT22;11029;47.820;10.534;2022-07-26T02:43:18;19.50;78.20
21734;DHT22;11029;47.820;10.534;2022-07-26T02:45:45;19.40;78.70
21734;DHT22;11029;47.820;10.534;2022-07-26T02:48:31;19.50;79.00
21734;DHT22;11029;47.820;10.534;2022-07-26T02:50:58;19.50;77.60
21734;DHT22;11029;47.820;10.534;2022-07-26T02:53:24;19.30;78.00
21734;DHT22;11029;47.820;10.534;2022-07-26T02:55:51;19.20;78.40
21734;DHT22;11029;47.820;10.534;2022-07-26T02:58:18;19.20;79.40
21734;DHT22;11029;47.820;10.534;2022-07-26T03:00:47;19.10;79.70
21734;DHT22;11029;47.820;10.534;2022-07-26T03:03:14;19.00;79.80
21734;DHT22;11029;47.820;10.534;2022-07-26T03:05:40;19.00;79.50
21734;DHT22;11029;47.820;10.534;2022-07-26T03:08:07;18.80;80.60
21734;DHT22;11029;47.820;10.534;2022-07-26T03:10:34;18.60;81.90
21734;DHT22;11029;47.820;10.534;2022-07-26T03:13:01;18.50;81.90
21734;DHT22;11029;47.820;10.534;2022-07-26T03:15:28;18.30;81.80
21734;DHT22;11029;47.820;10.534;2022-07-26T03:17:55;18.20;83.70
21734;DHT22;11029;47.820;10.534;2022-07-26T03:20:22;18.40;83.80
21734;DHT22;11029;47.820;10.534;2022-07-26T03:22:49;18.50;81.30
21734;DHT22;11029;47.820;10.534;2022-07-26T03:25:16;18.40;81.30
21734;DHT22;11029;47.820;10.534;2022-07-26T03:27:43;18.10;81.90
21734;DHT22;11029;47.820;10.534;2022-07-26T03:30:10;18.20;81.50
21734;DHT22;11029;47.820;10.534;2022-07-26T03:32:38;18.20;80.90
21734;DHT22;11029;47.820;10.534;2022-07-26T03:35:05;18.20;80.10
21734;DHT22;11029;47.820;10.534;2022-07-26T03:37:33;18.30;80.90
21734;DHT22;11029;47.820;10.534;2022-07-26T03:40:16;18.30;79.40
21734;DHT22;11029;47.820;10.534;2022-07-26T03:42:44;18.20;79.30
21734;DHT22;11029;47.820;10.534;2022-07-26T03:45:12;18.10;80.00
21734;DHT22;11029;47.820;10.534;2022-07-26T03:47:39;18.10;79.70
21734;DHT22;11029;47.820;10.534;2022-07-26T03:50:07;18.00;79.70
21734;DHT22;11029;47.820;10.534;2022-07-26T03:52:34;18.00;79.20
21734;DHT22;11029;47.820;10.534;2022-07-26T03:55:00;17.90;79.50
21734;DHT22;11029;47.820;10.534;2022-07-26T03:57:47;17.70;80.30
21734;DHT22;11029;47.820;10.534;2022-07-26T04:00:14;17.70;81.10
21734;DHT22;11029;47.820;10.534;2022-07-26T04:02:41;17.80;80.10
21734;DHT22;11029;47.820;10.534;2022-07-26T04:05:09;17.80;79.90
21734;DHT22;11029;47.820;10.534;2022-07-26T04:07:43;17.70;79.80
21734;DHT22;11029;47.820;10.534;2022-07-26T04:10:20;17.80;79.80
21734;DHT22;11029;47.820;10.534;2022-07-26T04:12:47;17.70;79.60
21734;DHT22;11029;47.820;10.534;2022-07-26T04:15:14;17.70;79.10
21734;DHT22;11029;47.820;10.534;2022-07-26T04:17:42;17.70;79.00
21734;DHT22;11029;47.820;10.534;2022-07-26T04:20:11;17.90;79.30
21734;DHT22;11029;47.820;10.534;2022-07-26T04:22:40;17.90;78.90
21734;DHT22;11029;47.820;10.534;2022-07-26T04:25:08;17.90;78.50
21734;DHT22;11029;47.820;10.534;2022-07-26T04:27:35;17.80;78.70
21734;DHT22;11029;47.820;10.534;2022-07-26T04:30:03;17.80;79.00
21734;DHT22;11029;47.820;10.534;2022-07-26T04:32:34;17.60;79.20
21734;DHT22;11029;47.820;10.534;2022-07-26T04:35:00;17.50;80.00
21734;DHT22;11029;47.820;10.534;2022-07-26T04:37:27;17.60;79.70
21734;DHT22;11029;47.820;10.534;2022-07-26T04:39:54;17.70;79.40
21734;DHT22;11029;47.820;10.534;2022-07-26T04:42:21;17.80;79.00
21734;DHT22;11029;47.820;10.534;2022-07-26T04:44:47;17.80;78.70
21734;DHT22;11029;47.820;10.534;2022-07-26T04:47:14;17.70;78.80
21734;DHT22;11029;47.820;10.534;2022-07-26T04:49:41;17.70;78.70
21734;DHT22;11029;47.820;10.534;2022-07-26T04:52:07;17.70;78.70
21734;DHT22;11029;47.820;10.534;2022-07-26T04:54:34;17.60;79.50
21734;DHT22;11029;47.820;10.534;2022-07-26T04:57:01;17.70;78.90
21734;DHT22;11029;47.820;10.534;2022-07-26T04:59:28;17.70;79.90
21734;DHT22;11029;47.820;10.534;2022-07-26T05:01:58;17.80;79.40
21734;DHT22;11029;47.820;10.534;2022-07-26T05:04:25;17.80;78.90
21734;DHT22;11029;47.820;10.534;2022-07-26T05:06:52;17.70;79.40
21734;DHT22;11029;47.820;10.534;2022-07-26T05:09:19;17.80;78.70
21734;DHT22;11029;47.820;10.534;2022-07-26T05:11:45;18.00;79.10
21734;DHT22;11029;47.820;10.534;2022-07-26T05:14:12;18.00;78.90
21734;DHT22;11029;47.820;10.534;2022-07-26T05:16:39;18.20;78.80
21734;DHT22;11029;47.820;10.534;2022-07-26T05:19:10;18.30;78.30
21734;DHT22;11029;47.820;10.534;2022-07-26T05:21:37;18.40;78.40
21734;DHT22;11029;47.820;10.534;2022-07-26T05:24:04;18.40;77.70
21734;DHT22;11029;47.820;10.534;2022-07-26T05:26:33;18.40;78.30
21734;DHT22;11029;47.820;10.534;2022-07-26T05:29:00;18.50;78.10
21734;DHT22;11029;47.820;10.534;2022-07-26T05:31:27;18.50;77.80
21734;DHT22;11029;47.820;10.534;2022-07-26T05:33:54;18.50;77.90
21734;DHT22;11029;47.820;10.534;2022-07-26T05:36:21;18.50;78.60
21734;DHT22;11029;47.820;10.534;2022-07-26T05:38:48;18.50;78.50
21734;DHT22;11029;47.820;10.534;2022-07-26T05:41:15;18.50;78.30
21734;DHT22;11029;47.820;10.534;2022-07-26T05:43:42;18.50;78.10
21734;DHT22;11029;47.820;10.534;2022-07-26T05:46:10;18.50;78.00
21734;DHT22;11029;47.820;10.534;2022-07-26T05:48:38;18.50;77.80
21734;DHT22;11029;47.820;10.534;2022-07-26T05:51:05;18.50;78.20
21734;DHT22;11029;47.820;10.534;2022-07-26T05:53:32;18.40;79.00
21734;DHT22;11029;47.820;10.534;2022-07-26T05:55:58;18.40;79.80
21734;DHT22;11029;47.820;10.534;2022-07-26T05:58:25;18.50;79.60
21734;DHT22;11029;47.820;10.534;2022-07-26T06:00:52;18.50;79.30
21734;DHT22;11029;47.820;10.534;2022-07-26T06:03:19;18.50;77.90
21734;DHT22;11029;47.820;10.534;2022-07-26T06:05:51;18.30;77.40
21734;DHT22;11029;47.820;10.534;2022-07-26T06:08:19;18.30;78.70
21734;DHT22;11029;47.820;10.534;2022-07-26T06:10:50;18.30;78.40
21734;DHT22;11029;47.820;10.534;2022-07-26T06:13:17;18.20;78.20
21734;DHT22;11029;47.820;10.534;2022-07-26T06:15:45;18.20;79.20
21734;DHT22;11029;47.820;10.534;2022-07-26T06:18:12;18.20;79.10
21734;DHT22;11029;47.820;10.534;2022-07-26T06:20:40;18.20;78.40
21734;DHT22;11029;47.820;10.534;2022-07-26T06:23:07;18.10;77.90
21734;DHT22;11029;47.820;10.534;2022-07-26T06:25:34;18.00;79.00
21734;DHT22;11029;47.820;10.534;2022-07-26T06:28:02;17.90;79.80
21734;DHT22;11029;47.820;10.534;2022-07-26T06:30:29;17.80;80.60
21734;DHT22;11029;47.820;10.534;2022-07-26T06:32:56;17.70;80.90
21734;DHT22;11029;47.820;10.534;2022-07-26T06:35:23;17.70;79.80
21734;DHT22;11029;47.820;10.534;2022-07-26T06:37:50;17.40;80.20
21734;DHT22;11029;47.820;10.534;2022-07-26T06:40:17;17.00;81.80
21734;DHT22;11029;47.820;10.534;2022-07-26T06:42:43;16.70;82.80
21734;DHT22;11029;47.820;10.534;2022-07-26T06:45:10;16.70;83.80
21734;DHT22;11029;47.820;10.534;2022-07-26T06:47:37;16.80;83.70
21734;DHT22;11029;47.820;10.534;2022-07-26T06:50:04;16.60;83.00
21734;DHT22;11029;47.820;10.534;2022-07-26T06:52:32;16.70;83.00
21734;DHT22;11029;47.820;10.534;2022-07-26T06:54:59;16.80;82.20
21734;DHT22;11029;47.820;10.534;2022-07-26T06:57:26;16.80;81.00
21734;DHT22;11029;47.820;10.534;2022-07-26T06:59:53;16.80;81.10
21734;DHT22;11029;47.820;10.534;2022-07-26T07:02:20;17.00;80.80
21734;DHT22;11029;47.820;10.534;2022-07-26T07:04:46;17.00;79.80
21734;DHT22;11029;47.820;10.534;2022-07-26T07:07:13;16.90;80.00
21734;DHT22;11029;47.820;10.534;2022-07-26T07:09:40;17.00;79.20
21734;DHT22;11029;47.820;10.534;2022-07-26T07:12:07;17.00;79.40
21734;DHT22;11029;47.820;10.534;2022-07-26T07:14:37;16.90;80.40
21734;DHT22;11029;47.820;10.534;2022-07-26T07:17:04;17.00;78.90
21734;DHT22;11029;47.820;10.534;2022-07-26T07:19:39;16.90;79.30
21734;DHT22;11029;47.820;10.534;2022-07-26T07:22:06;17.10;78.90
21734;DHT22;11029;47.820;10.534;2022-07-26T07:24:37;17.10;78.40
21734;DHT22;11029;47.820;10.534;2022-07-26T07:27:04;17.00;78.30
21734;DHT22;11029;47.820;10.534;2022-07-26T07:29:32;16.80;79.40
21734;DHT22;11029;47.820;10.534;2022-07-26T07:31:59;16.70;79.30
21734;DHT22;11029;47.820;10.534;2022-07-26T07:34:29;16.60;80.80
21734;DHT22;11029;47.820;10.534;2022-07-26T07:36:56;16.60;80.20
21734;DHT22;11029;47.820;10.534;2022-07-26T07:39:23;16.30;80.80
21734;DHT22;11029;47.820;10.534;2022-07-26T07:42:04;16.20;81.00
21734;DHT22;11029;47.820;10.534;2022-07-26T07:44:30;16.10;81.70
21734;DHT22;11029;47.820;10.534;2022-07-26T07:46:57;16.00;82.10
21734;DHT22;11029;47.820;10.534;2022-07-26T07:49:24;15.90;82.90
21734;DHT22;11029;47.820;10.534;2022-07-26T07:51:51;15.80;83.10
21734;DHT22;11029;47.820;10.534;2022-07-26T07:54:18;15.80;83.60
21734;DHT22;11029;47.820;10.534;2022-07-26T07:56:47;15.90;82.70
21734;DHT22;11029;47.820;10.534;2022-07-26T07:59:14;15.80;83.30
21734;DHT22;11029;47.820;10.534;2022-07-26T08:01:41;16.00;83.10
21734;DHT22;11029;47.820;10.534;2022-07-26T08:04:10;16.20;82.50
21734;DHT22;11029;47.820;10.534;2022-07-26T08:06:37;16.40;81.80
21734;DHT22;11029;47.820;10.534;2022-07-26T08:09:07;16.50;80.50
21734;DHT22;11029;47.820;10.534;2022-07-26T08:11:35;16.50;81.50
21734;DHT22;11029;47.820;10.534;2022-07-26T08:14:02;16.60;80.80
21734;DHT22;11029;47.820;10.534;2022-07-26T08:16:29;16.70;81.10
21734;DHT22;11029;47.820;10.534;2022-07-26T08:18:57;16.80;80.60
21734;DHT22;11029;47.820;10.534;2022-07-26T08:21:25;17.00;79.70
21734;DHT22;11029;47.820;10.534;2022-07-26T08:23:54;17.00;79.60
21734;DHT22;11029;47.820;10.534;2022-07-26T08:26:21;17.10;78.90
21734;DHT22;11029;47.820;10.534;2022-07-26T08:28:48;17.10;79.10
21734;DHT22;11029;47.820;10.534;2022-07-26T08:31:26;17.20;78.00
21734;DHT22;11029;47.820;10.534;2022-07-26T08:33:54;17.30;79.30
21734;DHT22;11029;47.820;10.534;2022-07-26T08:36:21;17.40;78.70
21734;DHT22;11029;47.820;10.534;2022-07-26T08:38:48;17.30;78.40
21734;DHT22;11029;47.820;10.534;2022-07-26T08:41:16;17.50;78.50
21734;DHT22;11029;47.820;10.534;2022-07-26T08:43:45;17.60;78.30
21734;DHT22;11029;47.820;10.534;2022-07-26T08:46:23;17.70;78.70
21734;DHT22;11029;47.820;10.534;2022-07-26T08:48:54;17.80;78.50
21734;DHT22;11029;47.820;10.534;2022-07-26T08:51:22;18.00;78.10
21734;DHT22;11029;47.820;10.534;2022-07-26T08:53:53;18.00;78.10
21734;DHT22;11029;47.820;10.534;2022-07-26T08:56:29;18.10;77.90
21734;DHT22;11029;47.820;10.534;2022-07-26T08:58:56;18.20;77.60
21734;DHT22;11029;47.820;10.534;2022-07-26T09:01:23;18.10;75.80
21734;DHT22;11029;47.820;10.534;2022-07-26T09:03:50;18.20;76.40
21734;DHT22;11029;47.820;10.534;2022-07-26T09:06:19;18.20;76.30
21734;DHT22;11029;47.820;10.534;2022-07-26T09:08:51;18.10;76.30
21734;DHT22;11029;47.820;10.534;2022-07-26T09:11:24;18.10;77.10
21734;DHT22;11029;47.820;10.534;2022-07-26T09:13:54;18.10;76.20
21734;DHT22;11029;47.820;10.534;2022-07-26T09:16:21;18.00;77.40
21734;DHT22;11029;47.820;10.534;2022-07-26T09:18:48;18.10;78.00
21734;DHT22;11029;47.820;10.534;2022-07-26T09:21:32;18.20;77.90
21734;DHT22;11029;47.820;10.534;2022-07-26T09:24:01;18.30;78.60
21734;DHT22;11029;47.820;10.534;2022-07-26T09:26:28;18.40;78.20
21734;DHT22;11029;47.820;10.534;2022-07-26T09:29:10;18.50;78.20
21734;DHT22;11029;47.820;10.534;2022-07-26T09:31:38;18.60;78.00
21734;DHT22;11029;47.820;10.534;2022-07-26T09:34:06;18.60;78.50
21734;DHT22;11029;47.820;10.534;2022-07-26T09:36:49;18.70;77.70
21734;DHT22;11029;47.820;10.534;2022-07-26T09:39:16;18.70;78.40
21734;DHT22;11029;47.820;10.534;2022-07-26T09:41:48;18.80;78.50
21734;DHT22;11029;47.820;10.534;2022-07-26T09:44:40;18.80;76.90
21734;DHT22;11029;47.820;10.534;2022-07-26T09:47:13;18.90;76.70
21734;DHT22;11029;47.820;10.534;2022-07-26T09:49:41;18.90;76.50
21734;DHT22;11029;47.820;10.534;2022-07-26T09:52:19;18.90;76.90
21734;DHT22;11029;47.820;10.534;2022-07-26T09:54:47;19.10;76.30
21734;DHT22;11029;47.820;10.534;2022-07-26T09:57:16;19.30;75.30
21734;DHT22;11029;47.820;10.534;2022-07-26T09:59:45;19.30;74.70
21734;DHT22;11029;47.820;10.534;2022-07-26T10:02:13;19.30;74.10
21734;DHT22;11029;47.820;10.534;2022-07-26T10:04:40;19.20;73.90
21734;DHT22;11029;47.820;10.534;2022-07-26T10:07:09;19.10;75.30
21734;DHT22;11029;47.820;10.534;2022-07-26T10:09:46;19.20;75.30
21734;DHT22;11029;47.820;10.534;2022-07-26T10:12:16;19.30;75.90
21734;DHT22;11029;47.820;10.534;2022-07-26T10:14:45;19.40;75.60
21734;DHT22;11029;47.820;10.534;2022-07-26T10:20:05;19.70;73.30
21734;DHT22;11029;47.820;10.534;2022-07-26T10:22:46;19.80;72.80
21734;DHT22;11029;47.820;10.534;2022-07-26T10:28:00;19.90;71.80
21734;DHT22;11029;47.820;10.534;2022-07-26T10:30:37;20.10;71.80
21734;DHT22;11029;47.820;10.534;2022-07-26T10:33:09;20.20;71.30
21734;DHT22;11029;47.820;10.534;2022-07-26T10:35:39;20.10;70.60
21734;DHT22;11029;47.820;10.534;2022-07-26T10:38:13;19.90;71.70
21734;DHT22;11029;47.820;10.534;2022-07-26T10:40:58;20.00;69.40
21734;DHT22;11029;47.820;10.534;2022-07-26T10:43:26;20.10;69.50
21734;DHT22;11029;47.820;10.534;2022-07-26T10:46:21;20.30;68.90
21734;DHT22;11029;47.820;10.534;2022-07-26T10:49:03;20.30;69.30
21734;DHT22;11029;47.820;10.534;2022-07-26T10:51:35;20.20;70.40
21734;DHT22;11029;47.820;10.534;2022-07-26T10:54:04;20.10;70.90
21734;DHT22;11029;47.820;10.534;2022-07-26T10:56:32;20.00;70.30
21734;DHT22;11029;47.820;10.534;2022-07-26T10:59:01;20.10;71.80
21734;DHT22;11029;47.820;10.534;2022-07-26T11:01:39;20.20;71.90
21734;DHT22;11029;47.820;10.534;2022-07-26T11:04:17;20.40;70.00
21734;DHT22;11029;47.820;10.534;2022-07-26T11:06:44;20.50;69.30
21734;DHT22;11029;47.820;10.534;2022-07-26T11:09:11;20.60;68.40
21734;DHT22;11029;47.820;10.534;2022-07-26T11:11:38;20.70;67.60
21734;DHT22;11029;47.820;10.534;2022-07-26T11:14:14;20.60;66.70
21734;DHT22;11029;47.820;10.534;2022-07-26T11:16:46;20.50;67.80
21734;DHT22;11029;47.820;10.534;2022-07-26T11:19:20;20.50;68.10
21734;DHT22;11029;47.820;10.534;2022-07-26T11:21:56;20.40;68.40
21734;DHT22;11029;47.820;10.534;2022-07-26T11:24:24;20.40;67.70
21734;DHT22;11029;47.820;10.534;2022-07-26T11:26:52;20.40;68.90
21734;DHT22;11029;47.820;10.534;2022-07-26T11:29:27;20.40;68.90
21734;DHT22;11029;47.820;10.534;2022-07-26T11:32:18;20.50;68.80
21734;DHT22;11029;47.820;10.534;2022-07-26T11:34:57;20.50;68.40
21734;DHT22;11029;47.820;10.534;2022-07-26T11:37:24;20.60;69.50
21734;DHT22;11029;47.820;10.534;2022-07-26T11:39:51;20.70;68.30
21734;DHT22;11029;47.820;10.534;2022-07-26T11:42:18;20.70;67.80
21734;DHT22;11029;47.820;10.534;2022-07-26T11:44:48;20.80;67.40
21734;DHT22;11029;47.820;10.534;2022-07-26T11:47:17;20.60;66.00
21734;DHT22;11029;47.820;10.534;2022-07-26T11:49:46;20.40;67.80
21734;DHT22;11029;47.820;10.534;2022-07-26T11:52:33;20.50;67.20
21734;DHT22;11029;47.820;10.534;2022-07-26T11:55:00;20.70;66.30
21734;DHT22;11029;47.820;10.534;2022-07-26T11:57:28;20.70;67.40
21734;DHT22;11029;47.820;10.534;2022-07-26T11:59:57;20.90;66.80
21734;DHT22;11029;47.820;10.534;2022-07-26T12:02:25;21.10;67.40
21734;DHT22;11029;47.820;10.534;2022-07-26T12:05:13;21.40;66.70
21734;DHT22;11029;47.820;10.534;2022-07-26T12:07:59;21.70;65.40
21734;DHT22;11029;47.820;10.534;2022-07-26T12:10:26;21.80;63.80
21734;DHT22;11029;47.820;10.534;2022-07-26T12:13:26;21.50;63.50
21734;DHT22;11029;47.820;10.534;2022-07-26T12:16:05;21.40;64.90
21734;DHT22;11029;47.820;10.534;2022-07-26T12:18:32;21.30;63.60
21734;DHT22;11029;47.820;10.534;2022-07-26T12:21:07;21.10;65.10
21734;DHT22;11029;47.820;10.534;2022-07-26T12:23:43;20.80;65.10
21734;DHT22;11029;47.820;10.534;2022-07-26T12:26:27;20.70;65.90
21734;DHT22;11029;47.820;10.534;2022-07-26T12:28:55;20.60;65.70
21734;DHT22;11029;47.820;10.534;2022-07-26T12:31:28;20.60;66.10
21734;DHT22;11029;47.820;10.534;2022-07-26T12:33:55;20.80;65.10
21734;DHT22;11029;47.820;10.534;2022-07-26T12:36:23;20.70;66.70
21734;DHT22;11029;47.820;10.534;2022-07-26T12:38:57;20.70;65.60
21734;DHT22;11029;47.820;10.534;2022-07-26T12:41:38;20.70;65.80
21734;DHT22;11029;47.820;10.534;2022-07-26T12:44:06;20.30;65.20
21734;DHT22;11029;47.820;10.534;2022-07-26T12:46:34;20.10;68.00
21734;DHT22;11029;47.820;10.534;2022-07-26T12:49:02;20.00;68.80
21734;DHT22;11029;47.820;10.534;2022-07-26T12:51:29;19.80;69.40
21734;DHT22;11029;47.820;10.534;2022-07-26T12:53:56;19.60;71.20
21734;DHT22;11029;47.820;10.534;2022-07-26T12:56:23;19.50;71.80
21734;DHT22;11029;47.820;10.534;2022-07-26T12:58:49;19.40;72.60
21734;DHT22;11029;47.820;10.534;2022-07-26T13:01:16;19.30;74.00
21734;DHT22;11029;47.820;10.534;2022-07-26T13:03:43;19.30;72.90
21734;DHT22;11029;47.820;10.534;2022-07-26T13:06:10;19.30;72.10
21734;DHT22;11029;47.820;10.534;2022-07-26T13:08:39;19.30;73.20
21734;DHT22;11029;47.820;10.534;2022-07-26T13:11:05;19.20;73.70
21734;DHT22;11029;47.820;10.534;2022-07-26T13:13:32;19.10;73.10
21734;DHT22;11029;47.820;10.534;2022-07-26T13:15:59;19.10;73.50
21734;DHT22;11029;47.820;10.534;2022-07-26T13:18:26;19.00;74.20
21734;DHT22;11029;47.820;10.534;2022-07-26T13:20:52;19.00;73.50
21734;DHT22;11029;47.820;10.534;2022-07-26T13:23:19;19.00;73.70
21734;DHT22;11029;47.820;10.534;2022-07-26T13:25:47;19.10;74.10
21734;DHT22;11029;47.820;10.534;2022-07-26T13:28:15;19.20;72.90
21734;DHT22;11029;47.820;10.534;2022-07-26T13:30:43;19.30;72.70
21734;DHT22;11029;47.820;10.534;2022-07-26T13:33:11;19.50;71.70
21734;DHT22;11029;47.820;10.534;2022-07-26T13:35:39;19.60;70.30
21734;DHT22;11029;47.820;10.534;2022-07-26T13:38:09;19.80;70.30
21734;DHT22;11029;47.820;10.534;2022-07-26T13:40:36;20.10;67.60
21734;DHT22;11029;47.820;10.534;2022-07-26T13:43:03;20.50;66.90
21734;DHT22;11029;47.820;10.534;2022-07-26T13:45:30;20.90;65.90
21734;DHT22;11029;47.820;10.534;2022-07-26T13:47:57;21.20;67.00
21734;DHT22;11029;47.820;10.534;2022-07-26T13:50:28;21.80;64.30
21734;DHT22;11029;47.820;10.534;2022-07-26T13:52:55;22.20;62.20
21734;DHT22;11029;47.820;10.534;2022-07-26T13:55:23;22.70;59.60
21734;DHT22;11029;47.820;10.534;2022-07-26T13:57:50;22.80;58.20
21734;DHT22;11029;47.820;10.534;2022-07-26T14:00:27;23.00;55.50
21734;DHT22;11029;47.820;10.534;2022-07-26T14:02:57;23.30;55.70
21734;DHT22;11029;47.820;10.534;2022-07-26T14:05:25;23.40;55.50
21734;DHT22;11029;47.820;10.534;2022-07-26T14:07:52;23.60;56.40
21734;DHT22;11029;47.820;10.534;2022-07-26T14:10:20;23.30;54.70
21734;DHT22;11029;47.820;10.534;2022-07-26T14:12:47;23.30;56.40
21734;DHT22;11029;47.820;10.534;2022-07-26T14:15:15;23.50;53.00
21734;DHT22;11029;47.820;10.534;2022-07-26T14:17:48;23.50;54.00
21734;DHT22;11029;47.820;10.534;2022-07-26T14:20:14;23.30;54.40
21734;DHT22;11029;47.820;10.534;2022-07-26T14:22:44;23.60;53.60
21734;DHT22;11029;47.820;10.534;2022-07-26T14:25:11;23.70;52.60
21734;DHT22;11029;47.820;10.534;2022-07-26T14:27:38;23.60;52.40
21734;DHT22;11029;47.820;10.534;2022-07-26T14:30:05;23.80;52.30
21734;DHT22;11029;47.820;10.534;2022-07-26T14:32:32;24.20;52.40
21734;DHT22;11029;47.820;10.534;2022-07-26T14:34:59;24.00;49.60
21734;DHT22;11029;47.820;10.534;2022-07-26T14:37:26;23.40;50.10
21734;DHT22;11029;47.820;10.534;2022-07-26T14:40:14;23.20;53.70
21734;DHT22;11029;47.820;10.534;2022-07-26T14:42:41;23.30;52.50
21734;DHT22;11029;47.820;10.534;2022-07-26T14:45:09;23.90;52.40
21734;DHT22;11029;47.820;10.534;2022-07-26T14:47:36;24.20;51.10
21734;DHT22;11029;47.820;10.534;2022-07-26T14:50:05;24.30;51.30
21734;DHT22;11029;47.820;10.534;2022-07-26T14:52:36;24.50;51.90
21734;DHT22;11029;47.820;10.534;2022-07-26T14:55:04;24.40;52.10
21734;DHT22;11029;47.820;10.534;2022-07-26T14:57:31;24.10;51.40
21734;DHT22;11029;47.820;10.534;2022-07-26T15:00:05;24.00;53.70
21734;DHT22;11029;47.820;10.534;2022-07-26T15:02:33;24.20;52.30
21734;DHT22;11029;47.820;10.534;2022-07-26T15:05:00;24.50;51.70
21734;DHT22;11029;47.820;10.534;2022-07-26T15:07:27;24.80;51.60
21734;DHT22;11029;47.820;10.534;2022-07-26T15:09:54;25.00;50.60
21734;DHT22;11029;47.820;10.534;2022-07-26T15:12:21;25.30;49.10
21734;DHT22;11029;47.820;10.534;2022-07-26T15:14:47;25.10;48.10
21734;DHT22;11029;47.820;10.534;2022-07-26T15:17:14;25.00;49.80
21734;DHT22;11029;47.820;10.534;2022-07-26T15:19:41;24.50;50.40
21734;DHT22;11029;47.820;10.534;2022-07-26T15:22:08;24.50;50.50
21734;DHT22;11029;47.820;10.534;2022-07-26T15:24:35;24.70;50.80
21734;DHT22;11029;47.820;10.534;2022-07-26T15:27:06;25.30;50.00
21734;DHT22;11029;47.820;10.534;2022-07-26T15:29:33;25.40;49.70
21734;DHT22;11029;47.820;10.534;2022-07-26T15:32:02;25.70;49.10